Time;durP1;ratioP1;P1;durP2;ratioP2;P2;SDS_P1;SDS_P2;PMS_P1;PMS_P2;Temp;Humidity;BMP_temperature;BMP_pressure;BME280_temperature;BME280_humidity;BME280_pressure;Samples;Min_cycle;Max_cycle;Signal;HPM_P1;HPM_P2
2023/09/08 00:02:17;;;;;;;6.30;5.18;;;18.00;99.90;;;;;;4998196;28;20029;-50
2023/09/08 00:04:43;;;;;;;5.63;5.00;;;17.90;99.90;;;;;;4994741;28;20105;-50
2023/09/08 00:07:08;;;;;;;5.82;5.32;;;17.90;99.90;;;;;;4989688;28;20800;-52
2023/09/08 00:09:34;;;;;;;6.20;5.60;;;17.80;99.90;;;;;;4997250;28;20125;-50
2023/09/08 00:11:59;;;;;;;13.07;6.43;;;17.70;99.90;;;;;;4999621;28;20473;-50
2023/09/08 00:14:25;;;;;;;5.55;4.93;;;17.70;99.90;;;;;;5000147;28;20509;-52
2023/09/08 00:16:54;;;;;;;6.35;5.22;;;17.60;99.90;;;;;;4997644;28;20029;-51
2023/09/08 00:19:20;;;;;;;5.93;5.28;;;17.50;99.90;;;;;;4996505;28;20021;-50
2023/09/08 00:21:46;;;;;;;6.57;5.25;;;17.60;99.90;;;;;;4997540;28;20022;-49
2023/09/08 00:24:12;;;;;;;6.55;5.07;;;17.60;99.90;;;;;;5000350;28;20014;-53
2023/09/08 00:26:37;;;;;;;6.07;5.47;;;17.50;99.90;;;;;;4992789;28;20597;-51
2023/09/08 00:29:03;;;;;;;6.47;5.78;;;17.50;99.90;;;;;;4997451;28;20109;-49
2023/09/08 00:31:28;;;;;;;10.38;5.93;;;17.50;99.90;;;;;;5000629;28;20127;-49
2023/09/08 00:33:54;;;;;;;5.93;5.32;;;17.50;99.90;;;;;;5001181;28;20022;-48
2023/09/08 00:36:20;;;;;;;7.63;6.25;;;17.50;99.90;;;;;;4994041;28;20196;-54
2023/09/08 00:38:48;;;;;;;5.82;5.25;;;17.50;99.90;;;;;;4999450;28;20034;-50
2023/09/08 00:41:13;;;;;;;7.75;5.40;;;17.50;99.90;;;;;;4989529;28;20805;-53
2023/09/08 00:43:39;;;;;;;6.07;5.40;;;17.50;99.90;;;;;;4993077;28;20045;-50
2023/09/08 00:46:06;;;;;;;6.05;5.20;;;17.40;99.90;;;;;;4990292;28;20019;-49
2023/09/08 00:48:32;;;;;;;4.95;4.55;;;17.40;99.90;;;;;;4999738;28;20036;-48
2023/09/08 00:50:58;;;;;;;6.00;5.07;;;17.40;99.90;;;;;;4994672;28;20022;-48
2023/09/08 00:53:23;;;;;;;5.40;4.90;;;17.40;99.90;;;;;;4986825;28;20023;-52
2023/09/08 00:55:50;;;;;;;6.68;5.07;;;17.40;99.90;;;;;;4992211;28;20022;-50
2023/09/08 00:58:16;;;;;;;6.93;5.78;;;17.40;99.90;;;;;;4985757;28;20110;-49
2023/09/08 01:00:41;;;;;;;7.25;5.45;;;17.40;99.90;;;;;;5002639;28;20057;-51
2023/09/08 01:03:07;;;;;;;5.82;5.28;;;17.30;99.90;;;;;;4991710;28;20089;-49
2023/09/08 01:05:32;;;;;;;5.57;5.00;;;17.30;99.90;;;;;;5000892;28;20208;-54
2023/09/08 01:08:00;;;;;;;6.45;5.40;;;17.30;99.90;;;;;;4995315;28;20105;-49
2023/09/08 01:10:26;;;;;;;6.43;5.07;;;17.30;99.90;;;;;;4989685;28;20113;-51
2023/09/08 01:12:52;;;;;;;6.07;5.47;;;17.30;99.90;;;;;;4997646;28;20110;-51
2023/09/08 01:15:17;;;;;;;5.82;5.05;;;17.30;99.90;;;;;;4995362;28;20381;-49
2023/09/08 01:17:43;;;;;;;5.78;5.28;;;17.30;99.90;;;;;;5000944;28;20034;-52
2023/09/08 01:20:24;;;;;;;7.40;4.90;;;17.30;99.90;;;;;;4998905;28;20460;-52
2023/09/08 01:23:21;;;;;;;5.35;4.80;;;17.30;99.90;;;;;;4980204;28;20496;-49
2023/09/08 01:26:04;;;;;;;6.88;5.18;;;17.20;99.90;;;;;;4991229;28;20365;-49
2023/09/08 01:28:31;;;;;;;6.32;4.80;;;17.30;99.90;;;;;;4983812;28;20039;-50
2023/09/08 01:30:57;;;;;;;5.68;5.15;;;17.20;99.90;;;;;;4985640;28;20424;-50
2023/09/08 01:33:23;;;;;;;4.85;4.43;;;17.20;99.90;;;;;;4982215;28;20532;-50
2023/09/08 01:35:49;;;;;;;6.32;5.43;;;17.20;99.90;;;;;;4997626;28;20026;-49
2023/09/08 01:38:14;;;;;;;6.40;5.55;;;17.20;99.90;;;;;;4986638;28;20133;-49
2023/09/08 01:40:40;;;;;;;6.40;5.22;;;17.20;99.90;;;;;;4988605;28;20054;-50
2023/09/08 01:43:06;;;;;;;5.60;5.10;;;17.10;99.90;;;;;;5008196;28;20099;-52
2023/09/08 01:45:31;;;;;;;5.68;5.18;;;17.10;99.90;;;;;;4997419;28;20204;-49
2023/09/08 01:47:57;;;;;;;6.20;5.47;;;17.10;99.90;;;;;;4996344;28;20034;-53
2023/09/08 01:50:24;;;;;;;6.00;5.40;;;17.10;99.90;;;;;;4991566;28;20037;-49
2023/09/08 01:52:50;;;;;;;5.90;5.28;;;17.10;99.90;;;;;;4989418;28;20030;-50
2023/09/08 01:55:20;;;;;;;5.72;5.20;;;17.00;99.90;;;;;;4996833;28;20089;-51
2023/09/08 01:57:46;;;;;;;6.47;5.30;;;17.00;99.90;;;;;;5004431;28;20528;-54
2023/09/08 02:00:12;;;;;;;5.65;5.07;;;17.00;99.90;;;;;;4997027;28;20041;-49
2023/09/08 02:02:38;;;;;;;5.32;4.82;;;17.00;99.90;;;;;;4998891;28;20029;-49
2023/09/08 02:05:04;;;;;;;6.00;5.40;;;16.90;99.90;;;;;;4989210;28;20056;-52
2023/09/08 02:07:29;;;;;;;5.65;5.15;;;16.90;99.90;;;;;;4994909;28;20097;-55
2023/09/08 02:09:55;;;;;;;5.72;5.20;;;16.90;99.90;;;;;;4990881;28;20029;-54
2023/09/08 02:12:21;;;;;;;5.78;5.28;;;16.90;99.90;;;;;;4983730;28;20097;-53
2023/09/08 02:14:47;;;;;;;6.80;5.28;;;16.90;99.90;;;;;;5001170;28;20056;-51
2023/09/08 02:17:13;;;;;;;6.93;5.47;;;16.90;99.90;;;;;;4990050;28;20121;-52
2023/09/08 02:19:38;;;;;;;6.45;5.47;;;16.80;99.90;;;;;;4995523;28;20053;-51
2023/09/08 02:22:04;;;;;;;6.13;5.28;;;16.80;99.90;;;;;;4998786;28;20096;-52
2023/09/08 02:24:29;;;;;;;6.05;5.45;;;16.80;99.90;;;;;;4992656;28;20019;-52
2023/09/08 02:26:55;;;;;;;6.05;5.50;;;16.70;99.90;;;;;;5000745;22;20109;-58
2023/09/08 02:29:20;;;;;;;5.70;5.10;;;16.70;99.90;;;;;;4981982;28;20041;-58
2023/09/08 02:31:46;;;;;;;5.82;4.93;;;16.60;99.90;;;;;;4981435;28;20042;-58
2023/09/08 02:34:12;;;;;;;6.60;5.18;;;16.60;99.90;;;;;;4976965;28;20556;-58
2023/09/08 02:36:38;;;;;;;6.38;5.78;;;16.50;99.90;;;;;;4971731;28;20497;-60
2023/09/08 02:39:04;;;;;;;5.72;5.15;;;16.50;99.90;;;;;;4958095;28;20144;-59
2023/09/08 02:41:29;;;;;;;5.80;5.22;;;16.40;99.90;;;;;;4960135;28;20031;-59
2023/09/08 02:43:55;;;;;;;5.85;5.32;;;16.30;99.90;;;;;;4957090;28;20026;-60
2023/09/08 02:46:20;;;;;;;7.25;5.75;;;16.30;99.90;;;;;;4952892;28;20027;-57
2023/09/08 02:48:46;;;;;;;7.05;5.00;;;16.20;99.90;;;;;;4952471;28;20136;-59
2023/09/08 02:51:12;;;;;;;6.20;5.60;;;16.20;99.90;;;;;;4954304;28;20023;-59
2023/09/08 02:53:37;;;;;;;7.97;5.45;;;16.10;99.90;;;;;;4960815;28;20150;-60
2023/09/08 02:56:05;;;;;;;7.38;6.20;;;16.10;99.90;;;;;;4961887;28;20089;-59
2023/09/08 02:58:34;;;;;;;7.32;5.25;;;16.00;99.90;;;;;;4959103;28;20027;-60
2023/09/08 03:01:30;;;;;;;5.75;5.25;;;16.00;99.90;;;;;;4954239;28;20041;-59
2023/09/08 03:03:55;;;;;;;7.63;5.15;;;15.90;99.90;;;;;;4941854;28;20050;-57
2023/09/08 03:06:21;;;;;;;7.53;5.55;;;15.90;99.90;;;;;;4952817;28;20520;-59
2023/09/08 03:08:46;;;;;;;5.50;4.95;;;15.80;99.90;;;;;;4952901;28;20039;-59
2023/09/08 03:11:13;;;;;;;7.35;5.95;;;15.80;99.90;;;;;;4956568;28;20034;-58
2023/09/08 03:13:38;;;;;;;7.95;5.57;;;15.70;99.90;;;;;;4958885;28;20024;-59
2023/09/08 03:16:05;;;;;;;6.05;5.05;;;15.70;99.90;;;;;;4957532;28;20614;-59
2023/09/08 03:18:32;;;;;;;5.50;4.95;;;15.60;99.90;;;;;;4958779;28;20032;-58
2023/09/08 03:20:58;;;;;;;5.80;5.25;;;15.60;99.90;;;;;;4956914;28;20132;-57
2023/09/08 03:23:23;;;;;;;6.88;5.97;;;15.60;99.90;;;;;;4956257;28;20116;-60
2023/09/08 03:25:49;;;;;;;6.05;5.45;;;15.50;99.90;;;;;;4952687;28;20031;-59
2023/09/08 03:28:15;;;;;;;5.72;4.95;;;15.50;99.90;;;;;;4965328;28;20102;-60
2023/09/08 03:30:40;;;;;;;7.00;6.30;;;15.50;99.90;;;;;;4967618;28;20506;-60
2023/09/08 03:33:06;;;;;;;7.30;6.60;;;15.40;99.90;;;;;;4965407;28;20030;-56
2023/09/08 03:35:31;;;;;;;8.27;6.10;;;15.40;99.90;;;;;;4962198;28;20082;-56
2023/09/08 03:37:58;;;;;;;8.25;7.07;;;15.40;99.90;;;;;;4965641;28;20118;-60
2023/09/08 03:40:23;;;;;;;7.70;6.57;;;15.40;99.90;;;;;;4955699;28;20034;-60
2023/09/08 03:42:49;;;;;;;7.05;6.35;;;15.40;99.90;;;;;;4965569;28;20686;-59
2023/09/08 03:45:15;;;;;;;7.05;6.35;;;15.30;99.90;;;;;;4954814;28;20716;-57
2023/09/08 03:47:40;;;;;;;10.38;5.93;;;15.30;99.90;;;;;;4961373;28;20426;-59
2023/09/08 03:50:06;;;;;;;6.65;5.85;;;15.30;99.90;;;;;;4960005;28;20381;-57
2023/09/08 03:52:32;;;;;;;7.38;5.93;;;15.30;99.90;;;;;;4963490;28;20497;-59
2023/09/08 03:54:58;;;;;;;6.10;5.50;;;15.30;99.90;;;;;;4956648;28;20134;-59
2023/09/08 03:57:23;;;;;;;6.80;5.90;;;15.30;99.90;;;;;;4965852;28;20079;-59
2023/09/08 03:59:49;;;;;;;7.25;6.55;;;15.30;99.90;;;;;;4964442;28;20263;-55
2023/09/08 04:02:14;;;;;;;7.28;6.45;;;15.30;99.90;;;;;;4962778;28;20041;-58
2023/09/08 04:04:40;;;;;;;6.63;6.00;;;15.40;99.90;;;;;;4956893;28;20449;-59
2023/09/08 04:07:05;;;;;;;6.85;6.25;;;15.40;99.90;;;;;;4956613;28;20549;-58
2023/09/08 04:09:31;;;;;;;7.60;6.80;;;15.30;99.90;;;;;;4964852;28;20389;-57
2023/09/08 04:11:57;;;;;;;7.05;6.40;;;15.40;99.90;;;;;;4957678;28;20090;-56
2023/09/08 04:14:27;;;;;;;8.20;6.40;;;15.40;99.90;;;;;;4964248;28;20085;-55
2023/09/08 04:16:53;;;;;;;7.63;6.03;;;15.40;99.90;;;;;;4954041;28;20031;-58
2023/09/08 04:19:18;;;;;;;8.15;6.30;;;15.40;99.90;;;;;;4965821;28;20406;-57
2023/09/08 04:21:44;;;;;;;9.40;6.47;;;15.30;99.90;;;;;;4956147;28;20039;-59
2023/09/08 04:24:12;;;;;;;7.13;6.45;;;15.40;99.90;;;;;;4961401;28;20027;-58
2023/09/08 04:26:37;;;;;;;9.52;6.80;;;15.40;99.90;;;;;;4958008;28;20417;-58
2023/09/08 04:29:03;;;;;;;7.07;6.38;;;15.40;99.90;;;;;;4959416;28;20027;-56
2023/09/08 04:31:28;;;;;;;7.43;6.40;;;15.40;99.90;;;;;;4955731;28;20127;-59
2023/09/08 04:33:54;;;;;;;6.88;6.18;;;15.40;99.90;;;;;;4961814;28;20107;-55
2023/09/08 04:36:20;;;;;;;8.27;6.50;;;15.40;99.90;;;;;;4963732;28;20113;-57
2023/09/08 04:38:45;;;;;;;5.82;5.22;;;15.40;99.90;;;;;;4959690;28;20026;-56
2023/09/08 04:41:11;;;;;;;11.27;6.45;;;15.40;99.90;;;;;;4960692;28;20061;-59
2023/09/08 04:43:36;;;;;;;7.07;6.38;;;15.40;99.90;;;;;;4960886;28;20723;-58
2023/09/08 04:46:03;;;;;;;8.20;6.95;;;15.40;99.90;;;;;;4962922;28;20019;-59
2023/09/08 04:48:29;;;;;;;8.77;6.15;;;15.30;99.90;;;;;;4956870;28;20031;-55
2023/09/08 04:50:55;;;;;;;7.68;6.05;;;15.40;99.90;;;;;;4967242;28;20475;-59
2023/09/08 04:53:20;;;;;;;7.28;6.43;;;15.30;99.90;;;;;;4956117;28;20031;-59
2023/09/08 04:55:46;;;;;;;7.68;6.38;;;15.30;99.90;;;;;;4961158;28;20053;-58
2023/09/08 04:58:11;;;;;;;8.10;6.50;;;15.30;99.90;;;;;;4961360;28;20037;-58
2023/09/08 05:00:39;;;;;;;8.85;7.38;;;15.30;99.90;;;;;;4960680;28;20170;-58
2023/09/08 05:03:05;;;;;;;8.10;6.65;;;15.40;99.90;;;;;;4957766;28;20445;-56
2023/09/08 05:05:30;;;;;;;7.90;7.10;;;15.30;99.90;;;;;;4956577;28;20027;-59
2023/09/08 05:07:56;;;;;;;7.85;7.00;;;15.30;99.90;;;;;;4960986;28;20114;-58
2023/09/08 05:10:23;;;;;;;9.05;6.68;;;15.30;99.90;;;;;;4961027;28;20055;-59
2023/09/08 05:12:49;;;;;;;8.02;6.95;;;15.30;99.90;;;;;;4964232;28;20110;-58
2023/09/08 05:15:16;;;;;;;7.18;6.47;;;15.30;99.90;;;;;;4960086;28;20034;-57
2023/09/08 05:17:42;;;;;;;7.68;6.90;;;15.30;99.90;;;;;;4956417;28;20054;-58
2023/09/08 05:20:08;;;;;;;7.75;6.95;;;15.30;99.90;;;;;;4959589;28;20129;-58
2023/09/08 05:22:34;;;;;;;7.40;6.70;;;15.30;99.90;;;;;;4961246;28;20584;-58
2023/09/08 05:24:59;;;;;;;7.25;6.55;;;15.40;99.90;;;;;;4965971;28;20134;-58
2023/09/08 05:27:25;;;;;;;7.50;6.43;;;15.40;99.90;;;;;;4959510;28;20454;-60
2023/09/08 05:29:50;;;;;;;7.63;6.22;;;15.40;99.90;;;;;;4956121;28;20050;-59
2023/09/08 05:32:16;;;;;;;8.50;6.45;;;15.40;99.90;;;;;;4950144;28;20118;-57
2023/09/08 05:34:42;;;;;;;9.80;7.50;;;15.40;99.90;;;;;;4958674;28;20027;-59
2023/09/08 05:37:08;;;;;;;10.38;6.95;;;15.40;99.90;;;;;;4963148;28;20027;-57
2023/09/08 05:39:34;;;;;;;7.95;6.90;;;15.40;99.90;;;;;;4959449;28;20275;-58
2023/09/08 05:41:59;;;;;;;7.10;6.20;;;15.40;99.90;;;;;;4965809;28;20102;-58
2023/09/08 05:44:25;;;;;;;7.70;6.80;;;15.50;99.90;;;;;;4956619;28;20015;-59
2023/09/08 05:46:51;;;;;;;10.27;7.25;;;15.50;99.90;;;;;;4968218;28;20027;-58
2023/09/08 05:49:17;;;;;;;8.05;7.25;;;15.50;99.90;;;;;;4958556;28;20026;-59
2023/09/08 05:51:43;;;;;;;7.97;6.40;;;15.60;99.90;;;;;;4958031;28;20046;-52
2023/09/08 05:54:09;;;;;;;8.45;7.43;;;15.50;99.90;;;;;;4958588;28;20030;-56
2023/09/08 05:56:37;;;;;;;8.45;7.65;;;15.60;99.90;;;;;;4959016;28;20073;-56
2023/09/08 05:59:03;;;;;;;7.78;6.50;;;15.60;99.90;;;;;;4957599;28;20065;-56
2023/09/08 06:01:30;;;;;;;7.88;6.93;;;15.60;99.90;;;;;;4958524;28;20055;-54
2023/09/08 06:03:55;;;;;;;7.70;6.90;;;15.70;99.90;;;;;;4955789;28;20033;-59
2023/09/08 06:06:21;;;;;;;7.35;6.63;;;15.80;99.90;;;;;;4957297;28;20023;-58
2023/09/08 06:08:47;;;;;;;8.43;7.40;;;15.80;99.90;;;;;;4957706;28;20030;-58
2023/09/08 06:11:13;;;;;;;7.82;7.03;;;15.90;99.90;;;;;;4962922;28;20033;-60
2023/09/08 06:13:38;;;;;;;10.07;7.85;;;15.90;99.90;;;;;;4959474;28;20483;-59
2023/09/08 06:16:04;;;;;;;10.82;7.63;;;16.00;99.90;;;;;;4960084;28;20035;-59
2023/09/08 06:18:30;;;;;;;7.68;6.88;;;16.00;99.90;;;;;;4954551;28;20061;-59
2023/09/08 06:20:56;;;;;;;7.78;6.65;;;16.10;99.90;;;;;;4960619;28;20126;-59
2023/09/08 06:23:22;;;;;;;8.55;6.60;;;16.20;99.90;;;;;;4955780;28;20126;-57
2023/09/08 06:25:48;;;;;;;9.80;6.95;;;16.20;99.90;;;;;;4965205;28;20031;-55
2023/09/08 06:28:14;;;;;;;7.57;6.88;;;16.30;99.90;;;;;;4956803;28;20446;-54
2023/09/08 06:30:41;;;;;;;8.25;6.75;;;16.30;99.90;;;;;;4959095;28;20066;-55
2023/09/08 06:33:10;;;;;;;7.57;6.88;;;16.40;99.90;;;;;;4954987;28;20402;-56
2023/09/08 06:35:35;;;;;;;8.32;7.25;;;16.40;99.90;;;;;;4955860;28;20055;-58
2023/09/08 06:38:01;;;;;;;7.85;7.05;;;16.50;99.90;;;;;;4955834;28;20054;-56
2023/09/08 06:40:29;;;;;;;8.45;7.15;;;16.60;99.90;;;;;;4956216;28;20070;-59
2023/09/08 06:42:55;;;;;;;7.43;6.50;;;16.60;99.90;;;;;;4955397;28;20067;-59
2023/09/08 06:45:20;;;;;;;7.68;6.93;;;16.70;99.90;;;;;;4957997;28;20019;-56
2023/09/08 06:47:46;;;;;;;9.60;6.95;;;16.80;99.90;;;;;;4957788;28;20039;-54
2023/09/08 06:50:12;;;;;;;7.57;6.78;;;16.90;99.90;;;;;;4962067;28;20060;-57
2023/09/08 06:52:37;;;;;;;9.38;7.90;;;16.90;99.90;;;;;;4959576;28;20401;-57
2023/09/08 06:55:04;;;;;;;9.07;6.72;;;17.00;99.90;;;;;;4959767;28;20117;-57
2023/09/08 06:57:30;;;;;;;7.85;6.53;;;17.10;99.90;;;;;;4959157;28;20085;-59
2023/09/08 06:59:56;;;;;;;8.65;6.50;;;17.20;99.90;;;;;;4957075;28;20023;-54
2023/09/08 07:02:21;;;;;;;7.60;6.88;;;17.30;99.90;;;;;;4961818;28;20027;-58
2023/09/08 07:04:47;;;;;;;7.75;6.45;;;17.40;99.90;;;;;;4952144;28;20030;-57
2023/09/08 07:07:12;;;;;;;8.60;7.13;;;17.50;99.90;;;;;;4948651;28;20031;-56
2023/09/08 07:09:38;;;;;;;7.18;6.47;;;17.60;99.90;;;;;;4960298;28;20078;-58
2023/09/08 07:12:04;;;;;;;8.63;7.03;;;17.80;99.90;;;;;;4961244;28;20125;-59
2023/09/08 07:14:31;;;;;;;7.40;6.47;;;18.00;99.90;;;;;;4958672;28;20067;-60
2023/09/08 07:16:56;;;;;;;7.13;6.35;;;18.10;99.90;;;;;;4957642;28;20118;-60
2023/09/08 07:19:22;;;;;;;8.98;7.10;;;18.30;99.90;;;;;;4963148;28;20102;-56
2023/09/08 07:21:47;;;;;;;6.97;6.38;;;18.50;99.90;;;;;;4955526;28;20015;-59
2023/09/08 07:24:13;;;;;;;6.90;6.30;;;18.70;99.90;;;;;;4959680;28;20031;-58
2023/09/08 07:26:39;;;;;;;8.18;6.53;;;18.90;99.90;;;;;;4950836;28;20055;-55
2023/09/08 07:29:04;;;;;;;6.05;5.45;;;19.10;99.90;;;;;;4955364;28;20027;-57
2023/09/08 07:31:30;;;;;;;6.75;6.05;;;19.30;99.90;;;;;;4964127;28;20039;-61
2023/09/08 07:33:55;;;;;;;8.10;6.18;;;19.50;99.90;;;;;;4953300;28;20518;-59
2023/09/08 07:36:21;;;;;;;6.82;6.15;;;19.60;99.90;;;;;;4962278;28;20019;-58
2023/09/08 07:38:46;;;;;;;6.40;5.80;;;19.80;99.90;;;;;;4950482;28;20082;-59
2023/09/08 07:41:12;;;;;;;8.48;6.20;;;20.00;99.90;;;;;;4961306;28;20034;-59
2023/09/08 07:43:40;;;;;;;6.97;6.25;;;20.10;99.90;;;;;;4957967;28;20016;-58
2023/09/08 07:46:06;;;;;;;6.32;5.70;;;20.30;99.90;;;;;;4955877;28;20114;-57
2023/09/08 07:48:32;;;;;;;10.70;6.38;;;20.30;99.90;;;;;;4951918;28;20074;-59
2023/09/08 07:50:59;;;;;;;8.00;6.40;;;20.50;99.90;;;;;;4956837;28;20058;-59
2023/09/08 07:53:28;;;;;;;6.75;6.05;;;20.60;99.90;;;;;;4957885;28;20035;-61
2023/09/08 07:55:54;;;;;;;7.70;5.75;;;20.70;99.90;;;;;;4955391;28;20516;-60
2023/09/08 07:58:20;;;;;;;6.40;5.70;;;20.80;99.90;;;;;;4955987;28;20028;-60
2023/09/08 08:00:45;;;;;;;6.53;5.82;;;21.00;99.90;;;;;;4957088;28;20093;-60
2023/09/08 08:03:11;;;;;;;6.57;5.93;;;21.10;99.90;;;;;;4958848;28;20201;-60
2023/09/08 08:05:36;;;;;;;6.07;5.40;;;21.20;99.90;;;;;;4947532;28;20030;-59
2023/09/08 08:08:02;;;;;;;7.70;6.68;;;21.30;99.90;;;;;;4952872;28;20049;-56
2023/09/08 08:10:27;;;;;;;7.88;5.57;;;21.50;99.90;;;;;;4952356;28;20042;-57
2023/09/08 08:12:53;;;;;;;7.55;6.22;;;21.50;99.90;;;;;;4963592;28;20058;-58
2023/09/08 08:15:23;;;;;;;6.95;5.32;;;21.60;99.90;;;;;;4956055;28;20027;-56
2023/09/08 08:17:48;;;;;;;8.38;5.90;;;21.70;99.90;;;;;;4968766;28;20085;-59
2023/09/08 08:20:17;;;;;;;6.10;5.50;;;21.70;99.90;;;;;;4957101;28;20031;-59
2023/09/08 08:22:45;;;;;;;5.72;5.20;;;21.80;99.90;;;;;;4962731;28;20019;-57
2023/09/08 08:25:12;;;;;;;6.55;5.25;;;21.90;99.90;;;;;;4961208;28;20030;-58
2023/09/08 08:27:38;;;;;;;6.57;5.47;;;21.90;99.90;;;;;;5008567;22;20116;-49
2023/09/08 08:30:05;;;;;;;5.50;5.00;;;22.00;99.90;;;;;;4985018;28;20022;-51
2023/09/08 08:32:30;;;;;;;6.03;5.43;;;22.10;99.90;;;;;;4979622;28;20117;-48
2023/09/08 08:34:56;;;;;;;7.03;5.70;;;22.10;99.90;;;;;;4967789;28;20114;-52
2023/09/08 08:37:22;;;;;;;6.75;5.20;;;22.10;99.90;;;;;;4977185;28;20054;-51
2023/09/08 08:39:48;;;;;;;7.22;5.28;;;22.20;99.90;;;;;;4978169;28;20019;-49
2023/09/08 08:42:14;;;;;;;5.75;5.10;;;22.20;99.90;;;;;;4975731;28;20026;-49
2023/09/08 08:44:40;;;;;;;5.28;4.78;;;22.30;99.90;;;;;;4978196;28;20034;-48
2023/09/08 08:47:10;;;;;;;6.10;5.45;;;22.30;99.90;;;;;;4979919;28;20023;-52
2023/09/08 08:49:36;;;;;;;5.88;5.28;;;22.40;99.90;;;;;;4978380;28;20026;-53
2023/09/08 08:52:06;;;;;;;5.07;4.57;;;22.40;99.90;;;;;;4979988;28;20033;-50
2023/09/08 08:54:34;;;;;;;5.80;5.25;;;22.40;99.90;;;;;;4979128;28;20022;-53
2023/09/08 08:57:01;;;;;;;5.68;5.15;;;22.50;99.90;;;;;;4979756;28;20484;-52
2023/09/08 08:59:27;;;;;;;6.45;5.32;;;22.50;99.90;;;;;;4981634;28;20035;-54
2023/09/08 09:01:55;;;;;;;5.90;5.28;;;22.50;99.90;;;;;;4968652;28;20543;-53
2023/09/08 09:04:21;;;;;;;6.10;4.95;;;22.60;99.90;;;;;;4978270;28;20120;-48
2023/09/08 09:06:47;;;;;;;5.93;5.32;;;22.60;99.90;;;;;;4964403;28;20485;-50
2023/09/08 09:09:13;;;;;;;5.78;5.18;;;22.70;99.90;;;;;;4974415;28;20030;-52
2023/09/08 09:11:40;;;;;;;7.65;5.13;;;22.70;99.90;;;;;;4973458;28;20417;-50
2023/09/08 09:14:06;;;;;;;6.07;5.45;;;22.70;99.90;;;;;;4980636;28;20026;-53
2023/09/08 09:16:39;;;;;;;5.82;4.32;;;22.80;99.90;;;;;;4980144;28;20073;-51
2023/09/08 09:19:04;;;;;;;6.93;5.38;;;22.90;99.90;;;;;;4981349;28;20015;-51
2023/09/08 09:21:44;;;;;;;5.28;4.78;;;22.90;99.90;;;;;;4976777;28;20037;-49
2023/09/08 09:24:17;;;;;;;5.60;4.90;;;23.00;99.90;;;;;;4975599;28;20061;-49
2023/09/08 09:26:43;;;;;;;6.32;5.10;;;23.00;99.90;;;;;;4980048;28;20606;-48
2023/09/08 09:29:14;;;;;;;7.22;5.38;;;23.10;99.90;;;;;;4974826;28;20110;-52
2023/09/08 09:32:16;;;;;;;6.35;4.88;;;23.10;99.90;;;;;;4971725;28;20125;-52
2023/09/08 09:34:49;;;;;;;6.32;4.57;;;23.20;99.90;;;;;;4946140;29;20035;-52
2023/09/08 09:37:16;;;;;;;6.70;4.78;;;23.30;99.90;;;;;;4972622;28;20053;-53
2023/09/08 09:39:42;;;;;;;5.95;4.60;;;23.30;99.90;;;;;;4979584;28;20102;-51
2023/09/08 09:42:07;;;;;;;5.18;4.63;;;23.30;99.90;;;;;;4981031;28;20098;-53
2023/09/08 09:44:33;;;;;;;5.97;5.38;;;23.40;99.90;;;;;;4978267;28;20022;-53
2023/09/08 09:47:00;;;;;;;7.05;5.28;;;23.40;99.90;;;;;;4982283;28;20078;-51
2023/09/08 09:49:31;;;;;;;7.93;5.30;;;23.50;99.90;;;;;;4977306;28;20196;-53
2023/09/08 09:51:58;;;;;;;5.32;4.72;;;23.50;99.90;;;;;;4973633;28;20487;-52
2023/09/08 09:54:24;;;;;;;10.25;5.05;;;23.60;99.90;;;;;;4979207;28;20489;-50
2023/09/08 09:56:51;;;;;;;5.00;4.18;;;23.60;99.90;;;;;;4985282;28;20041;-55
2023/09/08 09:59:17;;;;;;;6.13;4.22;;;23.70;99.90;;;;;;4980973;28;20121;-51
2023/09/08 10:01:43;;;;;;;5.68;4.45;;;23.80;99.90;;;;;;4967781;28;20031;-54
2023/09/08 10:04:10;;;;;;;5.30;4.80;;;23.80;99.90;;;;;;4978488;28;20027;-55
2023/09/08 10:06:38;;;;;;;7.57;4.50;;;23.90;99.90;;;;;;4970648;28;20022;-52
2023/09/08 10:09:08;;;;;;;5.10;4.63;;;23.90;99.90;;;;;;4980155;28;20022;-49
2023/09/08 10:11:48;;;;;;;5.22;4.13;;;24.00;99.90;;;;;;4974001;28;20071;-53
2023/09/08 10:14:15;;;;;;;5.53;4.65;;;24.10;99.90;;;;;;4977922;28;20019;-55
2023/09/08 10:16:44;;;;;;;6.07;5.05;;;24.20;99.90;;;;;;4971105;28;20656;-54
2023/09/08 10:19:10;;;;;;;4.75;4.35;;;24.20;99.90;;;;;;4980704;28;20018;-54
2023/09/08 10:21:41;;;;;;;5.10;4.47;;;24.30;99.90;;;;;;4970865;28;20481;-54
2023/09/08 10:24:15;;;;;;;4.93;4.43;;;24.30;99.90;;;;;;4967952;28;20392;-52
2023/09/08 10:26:46;;;;;;;4.97;4.50;;;24.40;99.90;;;;;;4973662;28;20027;-52
2023/09/08 10:29:13;;;;;;;5.68;4.93;;;24.50;99.90;;;;;;4982838;28;20163;-51
2023/09/08 10:31:39;;;;;;;5.40;4.15;;;24.50;99.90;;;;;;4971420;28;20069;-51
2023/09/08 10:34:06;;;;;;;6.07;4.55;;;24.60;99.90;;;;;;4976188;28;20162;-50
2023/09/08 10:36:34;;;;;;;4.85;4.35;;;24.70;99.90;;;;;;4979706;28;20022;-51
2023/09/08 10:39:28;;;;;;;8.15;4.80;;;24.70;99.90;;;;;;4978096;28;20054;-54
2023/09/08 10:42:17;;;;;;;4.60;4.20;;;24.80;99.90;;;;;;4963857;28;20027;-53
2023/09/08 10:44:49;;;;;;;8.38;4.38;;;24.80;99.90;;;;;;4978387;28;20054;-54
2023/09/08 10:47:18;;;;;;;4.88;4.47;;;24.80;99.90;;;;;;4968297;28;20057;-52
2023/09/08 10:49:45;;;;;;;5.40;4.50;;;24.90;99.90;;;;;;4978080;28;20030;-49
2023/09/08 10:52:12;;;;;;;7.65;5.18;;;24.90;99.90;;;;;;4973804;28;20064;-52
2023/09/08 10:54:42;;;;;;;4.68;4.18;;;25.00;99.90;;;;;;4978043;28;20030;-51
2023/09/08 10:57:16;;;;;;;4.70;4.25;;;25.10;99.90;;;;;;4972472;28;20026;-49
2023/09/08 10:59:51;;;;;;;4.63;4.22;;;25.10;99.90;;;;;;4977100;28;20485;-53
2023/09/08 11:02:38;;;;;;;4.28;3.78;;;25.20;99.90;;;;;;4972996;28;20519;-53
2023/09/08 11:05:08;;;;;;;4.65;4.15;;;25.20;99.90;;;;;;4971673;28;20019;-54
2023/09/08 11:07:38;;;;;;;4.68;4.20;;;25.30;99.90;;;;;;4968091;28;20041;-49
2023/09/08 11:10:04;;;;;;;4.45;4.00;;;25.40;99.90;;;;;;4976855;28;20035;-51
2023/09/08 11:12:31;;;;;;;5.53;4.43;;;25.40;99.90;;;;;;4978520;28;20489;-50
2023/09/08 11:14:58;;;;;;;9.32;4.72;;;25.40;99.90;;;;;;4977461;28;20031;-50
2023/09/08 11:17:27;;;;;;;6.38;4.68;;;25.40;99.90;;;;;;4963932;28;20106;-51
2023/09/08 11:19:54;;;;;;;4.38;4.03;;;25.50;99.90;;;;;;4965714;28;20390;-50
2023/09/08 11:22:25;;;;;;;4.75;4.32;;;25.50;99.90;;;;;;4974816;28;20098;-51
2023/09/08 11:25:04;;;;;;;4.38;3.95;;;25.50;99.90;;;;;;4969833;28;20101;-51
2023/09/08 11:27:30;;;;;;;5.15;4.15;;;25.60;99.90;;;;;;4963067;28;20041;-55
2023/09/08 11:29:56;;;;;;;4.80;4.05;;;25.70;99.90;;;;;;4976224;28;20054;-54
2023/09/08 11:32:23;;;;;;;7.15;4.40;;;25.70;99.90;;;;;;4967663;28;20043;-54
2023/09/08 11:34:48;;;;;;;4.50;4.10;;;25.80;99.90;;;;;;4979475;28;20031;-48
2023/09/08 11:37:17;;;;;;;4.13;3.63;;;25.90;99.90;;;;;;4977069;28;20080;-53
2023/09/08 11:39:47;;;;;;;4.68;3.85;;;25.90;99.90;;;;;;4978852;28;20057;-49
2023/09/08 11:42:14;;;;;;;4.65;4.10;;;25.90;99.90;;;;;;4977964;28;20031;-49
2023/09/08 11:44:41;;;;;;;4.50;4.10;;;26.00;99.90;;;;;;4967281;28;20469;-51
2023/09/08 11:47:09;;;;;;;3.83;3.50;;;26.10;99.90;;;;;;4981906;28;20025;-50
2023/09/08 11:49:39;;;;;;;4.35;3.80;;;26.10;99.80;;;;;;4977234;28;20078;-53
2023/09/08 11:52:06;;;;;;;5.18;3.85;;;26.20;99.80;;;;;;4982836;28;20468;-50
2023/09/08 11:54:32;;;;;;;3.65;3.35;;;26.20;99.90;;;;;;4982705;28;20034;-51
2023/09/08 11:57:00;;;;;;;4.00;3.60;;;26.30;99.10;;;;;;4982880;28;20038;-54
2023/09/08 11:59:30;;;;;;;5.40;3.47;;;26.40;98.60;;;;;;4980773;28;20014;-49
2023/09/08 12:01:56;;;;;;;4.57;3.92;;;26.50;98.60;;;;;;4974283;28;20038;-50
2023/09/08 12:04:22;;;;;;;4.78;3.80;;;26.50;98.90;;;;;;4980066;28;20413;-51
2023/09/08 12:06:53;;;;;;;3.92;3.53;;;26.50;98.40;;;;;;4971220;28;20011;-50
2023/09/08 12:09:20;;;;;;;5.32;4.20;;;26.50;98.30;;;;;;4978396;28;20026;-53
2023/09/08 12:11:46;;;;;;;4.22;3.83;;;26.50;98.50;;;;;;4982433;28;20416;-49
2023/09/08 12:14:13;;;;;;;3.83;3.50;;;26.60;98.50;;;;;;4981754;28;20033;-49
2023/09/08 12:16:40;;;;;;;4.30;3.88;;;26.60;99.10;;;;;;4968072;28;20076;-52
2023/09/08 12:19:06;;;;;;;3.85;3.50;;;26.70;98.60;;;;;;4979526;28;20037;-56
2023/09/08 12:21:35;;;;;;;3.58;3.28;;;26.70;98.10;;;;;;4982010;28;20392;-54
2023/09/08 12:24:01;;;;;;;3.78;3.38;;;26.80;97.50;;;;;;4978931;28;20376;-51
2023/09/08 12:26:26;;;;;;;3.65;3.35;;;26.80;97.90;;;;;;4982266;28;20125;-50
2023/09/08 12:28:52;;;;;;;4.22;3.15;;;26.80;98.70;;;;;;4977442;28;20022;-52
2023/09/08 12:31:18;;;;;;;4.22;3.75;;;26.80;98.90;;;;;;4980246;28;20034;-53
2023/09/08 12:33:44;;;;;;;4.47;3.92;;;26.80;98.20;;;;;;4976640;28;20088;-53
2023/09/08 12:36:18;;;;;;;5.50;3.47;;;26.90;98.30;;;;;;4981346;28;20030;-52
2023/09/08 12:38:48;;;;;;;3.72;3.42;;;27.00;97.10;;;;;;4977623;28;20362;-49
2023/09/08 12:41:13;;;;;;;4.55;3.28;;;27.00;98.10;;;;;;4983747;28;20109;-51
2023/09/08 12:43:39;;;;;;;3.55;3.20;;;27.10;97.40;;;;;;4978269;28;20601;-52
2023/09/08 12:46:04;;;;;;;4.85;3.88;;;27.10;97.30;;;;;;4982814;28;20452;-53